Warspite, Canada
Current Conditions -  °F | °C
As of 7:00 AM on Sunday 25 Jan 2015 (Local Time) from CYED Reporting Station
Clear Clear  
Wind Chill: 30°   Ceiling: Unl
Heat Index: 37°   Visibility: 9mi
Dew Point: 28°   Wind: 12mph
Humidity: 70%   Direction: 220°SW
Pressure: 29.61"   Gusts: NA
Location:  54.09°N, 112.62°W
Report Text: CYED 251400Z AUTO 22010KT 9SM CLR 03/M02 A2961 RMK SLP052
Loading
Personal Weather Stations






























Interactive Weather Map New forecast layout! Learn more

10-Day Weather Forecast

Advertisements
Track Severe Weather on mobile